RJAT(METAR)
07/27 17:00
METAR RJAT 270800Z 16005KT 0200 -SHRA FG VV002 22/22 Q1001 RMK
A2957=
戻る
トップページへ戻る
IMOC Co,.Ltd.